createdAt,value
2018-09-10T00:00:16.479Z,19.89
2018-09-10T00:01:16.477Z,19.97
2018-09-10T00:02:16.474Z,20.04
2018-09-10T00:03:16.471Z,20.01
2018-09-10T00:04:16.475Z,19.90
2018-09-10T00:05:16.470Z,19.97
2018-09-10T00:06:16.468Z,19.90
2018-09-10T00:07:16.463Z,19.94
2018-09-10T00:08:16.468Z,19.86
2018-09-10T00:09:16.461Z,19.85
2018-09-10T00:10:16.460Z,19.92
2018-09-10T00:11:16.459Z,19.89
2018-09-10T00:12:16.450Z,19.92
2018-09-10T00:13:16.447Z,19.92
2018-09-10T00:14:16.446Z,19.92
2018-09-10T00:15:16.444Z,19.89
2018-09-10T00:16:16.448Z,19.94
2018-09-10T00:17:16.446Z,19.90
2018-09-10T00:18:16.442Z,19.98
2018-09-10T00:19:16.444Z,19.95
2018-09-10T00:20:16.434Z,19.97
2018-09-10T00:21:16.430Z,19.94
2018-09-10T00:22:16.440Z,19.92
2018-09-10T00:23:16.431Z,19.98
2018-09-10T00:24:16.426Z,19.97
2018-09-10T00:25:16.424Z,19.97
2018-09-10T00:26:16.425Z,19.97
2018-09-10T00:27:16.416Z,20.00
2018-09-10T00:28:16.419Z,19.90
2018-09-10T00:29:16.421Z,19.97
2018-09-10T00:30:16.415Z,19.89
2018-09-10T00:31:16.413Z,19.97
2018-09-10T00:32:16.409Z,19.94
2018-09-10T00:33:16.405Z,19.87
2018-09-10T00:34:16.402Z,19.92
2018-09-10T00:35:16.401Z,19.95
2018-09-10T00:36:16.403Z,19.87
2018-09-10T00:37:16.399Z,19.97
2018-09-10T00:38:16.395Z,19.90
2018-09-10T00:39:16.390Z,19.94
2018-09-10T00:40:16.397Z,19.90
2018-09-10T00:41:16.393Z,19.87
2018-09-10T00:42:16.389Z,19.87
2018-09-10T00:43:16.387Z,19.87
2018-09-10T00:44:16.380Z,19.85
2018-09-10T00:45:16.376Z,19.78
2018-09-10T00:46:16.376Z,19.86
2018-09-10T00:47:16.372Z,19.79
2018-09-10T00:48:16.375Z,19.71
2018-09-10T00:49:16.373Z,19.78
2018-09-10T00:50:16.371Z,19.72
2018-09-10T00:51:16.369Z,19.79
2018-09-10T00:52:16.363Z,19.80
2018-09-10T00:53:16.360Z,19.76
2018-09-10T00:54:16.363Z,19.82
2018-09-10T00:55:16.358Z,19.85
2018-09-10T00:56:16.353Z,19.70
2018-09-10T00:57:16.348Z,19.75
2018-09-10T00:58:16.347Z,19.75
2018-09-10T00:59:16.347Z,19.76
2018-09-10T01:00:16.347Z,19.80
2018-09-10T01:01:16.344Z,19.75
2018-09-10T01:02:16.343Z,19.75
2018-09-10T01:03:16.340Z,19.75
2018-09-10T01:04:16.333Z,19.71
2018-09-10T01:05:16.334Z,19.78
2018-09-10T01:06:16.329Z,19.78
2018-09-10T01:07:16.327Z,19.82
2018-09-10T01:08:16.329Z,19.76
2018-09-10T01:09:16.326Z,19.72
2018-09-10T01:10:16.319Z,19.85
2018-09-10T01:11:16.318Z,19.80
2018-09-10T01:12:16.319Z,19.76
2018-09-10T01:13:16.317Z,19.71
2018-09-10T01:14:16.317Z,19.80
2018-09-10T01:15:16.314Z,19.78
2018-09-10T01:16:16.307Z,19.75
2018-09-10T01:17:16.302Z,19.72
2018-09-10T01:18:16.301Z,19.75
2018-09-10T01:19:16.300Z,19.78
2018-09-10T01:20:16.302Z,19.71
2018-09-10T01:21:16.298Z,19.70
2018-09-10T01:22:16.296Z,19.70
2018-09-10T01:23:16.294Z,19.68
2018-09-10T01:24:16.287Z,19.76
2018-09-10T01:25:16.286Z,19.75
2018-09-10T01:26:16.287Z,19.72
2018-09-10T01:27:16.285Z,19.72
2018-09-10T01:28:16.278Z,19.75
2018-09-10T01:29:16.277Z,19.67
2018-09-10T01:30:16.275Z,19.79
2018-09-10T01:31:16.274Z,19.65
2018-09-10T01:32:16.276Z,19.67
2018-09-10T01:33:16.273Z,19.75
2018-09-10T01:34:16.274Z,19.62
2018-09-10T01:35:16.270Z,19.55
2018-09-10T01:36:16.261Z,19.53
2018-09-10T01:37:16.259Z,19.53
2018-09-10T01:38:16.263Z,19.42
2018-09-10T01:39:16.254Z,19.38
2018-09-10T01:40:16.256Z,19.27
2018-09-10T01:41:16.262Z,19.24
2018-09-10T01:42:16.247Z,19.16
2018-09-10T01:43:16.246Z,19.06
2018-09-10T01:44:16.252Z,19.01
2018-09-10T01:45:16.245Z,19.01
2018-09-10T01:46:16.243Z,18.86
2018-09-10T01:47:16.241Z,18.75
2018-09-10T01:48:16.235Z,18.60
2018-09-10T01:49:16.230Z,18.68
2018-09-10T01:50:16.229Z,18.66
2018-09-10T01:51:16.231Z,18.60
2018-09-10T01:52:16.235Z,18.60
2018-09-10T01:53:16.226Z,18.51
2018-09-10T01:54:16.226Z,18.49
2018-09-10T01:55:16.220Z,18.39
2018-09-10T01:56:16.214Z,18.35
2018-09-10T01:57:16.210Z,18.31
2018-09-10T01:58:16.212Z,18.29
2018-09-10T01:59:16.212Z,18.26
2018-09-10T02:00:16.202Z,18.26
2018-09-10T02:01:16.200Z,18.34
2018-09-10T02:02:16.197Z,18.31
2018-09-10T02:03:16.194Z,18.35
2018-09-10T02:04:16.197Z,18.32
2018-09-10T02:05:16.192Z,18.49
2018-09-10T02:06:16.190Z,18.38
2018-09-10T02:07:16.188Z,18.49
2018-09-10T02:08:16.180Z,18.38
2018-09-10T02:09:16.178Z,18.49
2018-09-10T02:10:16.173Z,18.50
2018-09-10T02:11:16.170Z,18.49
2018-09-10T02:12:16.172Z,18.49
2018-09-10T02:13:16.168Z,18.39
2018-09-10T02:14:16.163Z,18.36
2018-09-10T02:15:16.159Z,18.46
2018-09-10T02:16:16.161Z,18.41
2018-09-10T02:17:16.256Z,18.32
2018-09-10T02:18:16.159Z,18.35
2018-09-10T02:19:16.155Z,18.29
2018-09-10T02:20:16.210Z,18.29
2018-09-10T02:21:16.142Z,18.26
2018-09-10T02:22:16.140Z,18.28
2018-09-10T02:23:16.138Z,18.26
2018-09-10T02:24:16.139Z,18.17
2018-09-10T02:25:16.135Z,18.25
2018-09-10T02:26:16.133Z,18.14
2018-09-10T02:27:16.154Z,18.14
2018-09-10T02:28:16.125Z,18.11
2018-09-10T02:29:16.179Z,18.13
2018-09-10T02:30:16.121Z,18.17
2018-09-10T02:31:16.118Z,18.02
2018-09-10T02:32:16.116Z,18.13
2018-09-10T02:33:16.107Z,18.10
2018-09-10T02:34:16.103Z,18.05
2018-09-10T02:35:16.101Z,18.10
2018-09-10T02:36:16.102Z,18.17
2018-09-10T02:37:16.102Z,18.11
2018-09-10T02:38:16.095Z,18.11
2018-09-10T02:39:16.092Z,18.14
2018-09-10T02:40:16.085Z,18.21
2018-09-10T02:41:16.082Z,18.16
2018-09-10T02:42:16.080Z,18.20
2018-09-10T02:43:16.077Z,18.17
2018-09-10T02:44:16.079Z,18.32
2018-09-10T02:45:16.076Z,18.20
2018-09-10T02:46:16.066Z,18.20
2018-09-10T02:47:16.064Z,18.26
2018-09-10T02:48:16.068Z,18.25
2018-09-10T02:49:16.065Z,18.19
2018-09-10T02:50:16.060Z,18.25
2018-09-10T02:51:16.056Z,18.29
2018-09-10T02:52:16.050Z,18.42
2018-09-10T02:53:16.046Z,18.32
2018-09-10T02:54:16.048Z,18.26
2018-09-10T02:55:16.112Z,18.26
2018-09-10T02:56:16.041Z,18.26
2018-09-10T02:57:16.036Z,18.28
2018-09-10T02:58:16.037Z,18.23
2018-09-10T02:59:16.032Z,18.38
2018-09-10T03:00:16.025Z,18.23
2018-09-10T03:01:16.021Z,18.26
2018-09-10T03:02:16.023Z,18.21
2018-09-10T03:03:16.020Z,18.25
2018-09-10T03:04:16.014Z,18.19
2018-09-10T03:05:16.008Z,18.17
2018-09-10T03:06:16.008Z,18.26
2018-09-10T03:07:16.005Z,18.17
2018-09-10T03:08:16.004Z,18.20
2018-09-10T03:09:16.000Z,18.14
2018-09-10T03:10:15.998Z,18.20
2018-09-10T03:11:15.997Z,18.13
2018-09-10T03:12:15.987Z,18.19
2018-09-10T03:13:15.984Z,18.11
2018-09-10T03:14:15.980Z,18.13
2018-09-10T03:15:15.978Z,18.17
2018-09-10T03:16:15.980Z,18.20
2018-09-10T03:17:15.976Z,18.21
2018-09-10T03:18:15.970Z,18.21
2018-09-10T03:19:15.967Z,18.25
2018-09-10T03:20:15.973Z,18.17
2018-09-10T03:21:15.964Z,18.21
2018-09-10T03:22:15.961Z,18.23
2018-09-10T03:23:15.959Z,18.25
2018-09-10T03:24:15.975Z,18.25
2018-09-10T03:25:15.947Z,18.19
2018-09-10T03:26:15.944Z,18.20
2018-09-10T03:27:15.942Z,18.20
2018-09-10T03:28:15.946Z,18.19
2018-09-10T03:29:15.940Z,18.23
2018-09-10T03:30:15.940Z,18.23
2018-09-10T03:31:15.938Z,18.19
2018-09-10T03:32:15.927Z,18.25
2018-09-10T03:33:15.924Z,18.23
2018-09-10T03:34:15.925Z,18.26
2018-09-10T03:35:15.924Z,18.21
2018-09-10T03:36:15.920Z,18.20
2018-09-10T03:37:15.913Z,18.25
2018-09-10T03:38:15.907Z,18.17
2018-09-10T03:39:15.912Z,18.21
2018-09-10T03:40:15.907Z,18.19
2018-09-10T03:41:15.903Z,18.17
2018-09-10T03:42:15.901Z,18.28
2018-09-10T03:43:15.900Z,18.25
2018-09-10T03:44:15.947Z,18.29
2018-09-10T03:45:15.891Z,18.23
2018-09-10T03:46:15.885Z,18.25
2018-09-10T03:47:15.922Z,18.19
2018-09-10T03:48:15.887Z,18.23
2018-09-10T03:49:15.881Z,18.29
2018-09-10T03:50:15.882Z,18.25
2018-09-10T03:51:15.869Z,18.31
2018-09-10T03:52:15.873Z,18.23
2018-09-10T03:53:15.869Z,18.25
2018-09-10T03:54:15.866Z,18.25
2018-09-10T03:55:15.862Z,18.25
2018-09-10T03:56:15.855Z,18.19
2018-09-10T03:57:15.851Z,18.20
2018-09-10T03:58:15.853Z,18.17
2018-09-10T03:59:15.846Z,18.26
2018-09-10T04:00:15.848Z,18.17
2018-09-10T04:01:15.848Z,18.20
2018-09-10T04:02:15.845Z,18.17
2018-09-10T04:03:15.840Z,18.26
2018-09-10T04:04:15.833Z,18.25
2018-09-10T04:05:15.829Z,18.17
2018-09-10T04:06:15.839Z,18.19
2018-09-10T04:07:15.829Z,18.23
2018-09-10T04:08:15.821Z,18.21
2018-09-10T04:09:15.816Z,18.17
2018-09-10T04:10:15.815Z,18.11
2018-09-10T04:11:15.812Z,18.16
2018-09-10T04:12:15.812Z,18.21
2018-09-10T04:13:15.810Z,18.23
2018-09-10T04:14:15.807Z,18.23
2018-09-10T04:15:15.807Z,18.21
2018-09-10T04:16:15.798Z,18.23
2018-09-10T04:17:15.887Z,18.23
2018-09-10T04:18:15.790Z,18.19
2018-09-10T04:19:15.789Z,18.21
2018-09-10T04:20:15.850Z,18.17
2018-09-10T04:21:15.787Z,18.17
2018-09-10T04:22:15.779Z,18.28
2018-09-10T04:23:15.776Z,18.28
2018-09-10T04:24:15.779Z,18.26
2018-09-10T04:25:15.775Z,18.23
2018-09-10T04:26:15.774Z,18.23
2018-09-10T04:27:15.772Z,18.31
2018-09-10T04:28:15.763Z,18.36
2018-09-10T04:29:15.759Z,18.21
2018-09-10T04:30:15.756Z,18.26
2018-09-10T04:31:15.757Z,18.21
2018-09-10T04:32:15.757Z,18.25
2018-09-10T04:33:15.753Z,18.23
2018-09-10T04:34:15.749Z,18.25
2018-09-10T04:35:15.748Z,18.25
2018-09-10T04:36:15.835Z,18.28
2018-09-10T04:37:15.736Z,18.21
2018-09-10T04:38:15.738Z,18.25
2018-09-10T04:39:15.735Z,18.19
2018-09-10T04:40:15.728Z,18.16
2018-09-10T04:41:15.725Z,18.23
2018-09-10T04:42:15.809Z,18.21
2018-09-10T04:43:15.720Z,18.20
2018-09-10T04:44:15.722Z,18.14
2018-09-10T04:45:15.718Z,18.16
2018-09-10T04:46:15.717Z,18.14
2018-09-10T04:47:15.719Z,18.10
2018-09-10T04:48:15.705Z,18.14
2018-09-10T04:49:15.701Z,18.01
2018-09-10T04:50:15.702Z,18.02
2018-09-10T04:51:15.696Z,18.09
2018-09-10T04:52:15.697Z,18.02
2018-09-10T04:53:15.694Z,18.01
2018-09-10T04:54:15.688Z,18.04
2018-09-10T04:55:15.685Z,18.01
2018-09-10T04:56:15.686Z,18.04
2018-09-10T04:57:15.688Z,18.05
2018-09-10T04:58:15.768Z,18.01
2018-09-10T04:59:15.677Z,18.04
2018-09-10T05:00:15.669Z,18.01
2018-09-10T05:01:15.666Z,18.01
2018-09-10T05:02:15.664Z,18.04
2018-09-10T05:03:15.663Z,18.02
2018-09-10T05:04:15.663Z,17.94
2018-09-10T05:05:15.657Z,17.91
2018-09-10T05:06:15.655Z,17.99
2018-09-10T05:07:15.656Z,17.94
2018-09-10T05:08:15.647Z,17.96
2018-09-10T05:09:15.643Z,17.99
2018-09-10T05:10:15.645Z,17.98
2018-09-10T05:11:15.640Z,17.94
2018-09-10T05:12:15.632Z,17.91
2018-09-10T05:13:15.630Z,17.91
2018-09-10T05:14:15.656Z,17.89
2018-09-10T05:15:15.627Z,17.91
2018-09-10T05:16:15.627Z,17.84
2018-09-10T05:17:15.622Z,17.86
2018-09-10T05:18:15.619Z,17.92
2018-09-10T05:19:15.619Z,17.86
2018-09-10T05:20:15.610Z,17.81
2018-09-10T05:21:15.605Z,17.83
2018-09-10T05:22:15.603Z,17.92
2018-09-10T05:23:15.600Z,17.92
2018-09-10T05:24:15.601Z,17.86
2018-09-10T05:25:15.598Z,17.84
2018-09-10T05:26:15.589Z,17.81
2018-09-10T05:27:15.587Z,17.79
2018-09-10T05:28:15.612Z,17.86
2018-09-10T05:29:15.585Z,17.86
2018-09-10T05:30:15.583Z,17.87
2018-09-10T05:31:15.580Z,17.83
2018-09-10T05:32:15.572Z,17.87
2018-09-10T05:33:15.569Z,17.84
2018-09-10T05:34:15.565Z,17.87
2018-09-10T05:35:15.562Z,17.91
2018-09-10T05:36:15.564Z,17.91
2018-09-10T05:37:15.560Z,17.95
2018-09-10T05:38:15.558Z,17.98
2018-09-10T05:39:15.556Z,18.05
2018-09-10T05:40:15.549Z,17.91
2018-09-10T05:41:15.545Z,17.98
2018-09-10T05:42:15.546Z,18.05
2018-09-10T05:43:15.544Z,18.05
2018-09-10T05:44:15.539Z,18.01
2018-09-10T05:45:15.534Z,18.10
2018-09-10T05:46:15.529Z,18.07
2018-09-10T05:47:15.527Z,18.10
2018-09-10T05:48:15.529Z,18.09
2018-09-10T05:49:15.525Z,18.10
2018-09-10T05:50:15.523Z,18.10
2018-09-10T05:51:15.520Z,18.10
2018-09-10T05:52:15.512Z,18.14
2018-09-10T05:53:15.525Z,18.14
2018-09-10T05:54:15.507Z,18.07
2018-09-10T05:55:15.504Z,18.13
2018-09-10T05:56:15.507Z,18.11
2018-09-10T05:57:15.502Z,18.21
2018-09-10T05:58:15.496Z,18.17
2018-09-10T05:59:15.493Z,18.19
2018-09-10T06:00:15.495Z,18.28
2018-09-10T06:01:15.491Z,18.25
2018-09-10T06:02:15.490Z,18.26
2018-09-10T06:03:15.484Z,18.35
2018-09-10T06:04:15.479Z,18.31
2018-09-10T06:05:15.474Z,18.35
2018-09-10T06:06:15.473Z,18.50
2018-09-10T06:07:15.469Z,18.46
2018-09-10T06:08:15.472Z,18.46
2018-09-10T06:09:15.467Z,18.49
2018-09-10T06:10:15.467Z,18.47
2018-09-10T06:11:15.464Z,18.54
2018-09-10T06:12:15.456Z,18.62
2018-09-10T06:13:15.454Z,18.66
2018-09-10T06:14:15.456Z,18.68
2018-09-10T06:15:15.455Z,18.62
2018-09-10T06:16:15.449Z,18.69
2018-09-10T06:17:15.442Z,18.54
2018-09-10T06:18:15.440Z,18.64
2018-09-10T06:19:15.438Z,18.69
2018-09-10T06:20:15.440Z,18.64
2018-09-10T06:21:15.437Z,18.69
2018-09-10T06:22:15.435Z,18.71
2018-09-10T06:23:15.432Z,18.69
2018-09-10T06:24:15.425Z,18.72
2018-09-10T06:25:15.427Z,18.78
2018-09-10T06:26:15.419Z,18.76
2018-09-10T06:27:15.418Z,18.74
2018-09-10T06:28:15.421Z,18.78
2018-09-10T06:29:15.417Z,18.79
2018-09-10T06:30:15.438Z,18.84
2018-09-10T06:31:15.410Z,18.84
2018-09-10T06:32:15.411Z,18.86
2018-09-10T06:33:15.408Z,18.83
2018-09-10T06:34:15.493Z,18.89
2018-09-10T06:35:15.403Z,18.87
2018-09-10T06:36:15.408Z,18.89
2018-09-10T06:37:15.520Z,18.83
2018-09-10T06:38:15.392Z,18.90
2018-09-10T06:39:15.389Z,18.93
2018-09-10T06:40:15.393Z,18.91
2018-09-10T06:41:15.390Z,19.01
2018-09-10T06:42:15.386Z,18.96
2018-09-10T06:43:15.390Z,19.01
2018-09-10T06:44:15.379Z,18.99
2018-09-10T06:45:15.376Z,19.06
2018-09-10T06:46:15.380Z,19.06
2018-09-10T06:47:15.377Z,19.07
2018-09-10T06:48:15.370Z,19.09
2018-09-10T06:49:15.367Z,19.13
2018-09-10T06:50:15.371Z,19.20
2018-09-10T06:51:15.364Z,19.25
2018-09-10T06:52:15.367Z,19.25
2018-09-10T06:53:15.365Z,19.31
2018-09-10T06:54:15.365Z,19.34
2018-09-10T06:55:15.361Z,19.30
2018-09-10T06:56:15.353Z,19.21
2018-09-10T06:57:15.351Z,19.23
2018-09-10T06:58:15.350Z,19.21
2018-09-10T06:59:15.349Z,19.23
2018-09-10T07:00:15.426Z,19.16
2018-09-10T07:01:15.348Z,19.27
2018-09-10T07:02:15.342Z,19.28
2018-09-10T07:03:15.340Z,19.27
2018-09-10T07:04:15.344Z,19.42
2018-09-10T07:05:15.343Z,19.46
2018-09-10T07:06:15.342Z,19.46
2018-09-10T07:07:15.339Z,19.47
2018-09-10T07:08:15.333Z,19.57
2018-09-10T07:09:15.332Z,19.70
2018-09-10T07:10:15.328Z,19.80
2018-09-10T07:11:15.326Z,20.05
2018-09-10T07:12:15.330Z,20.34
2018-09-10T07:13:15.369Z,20.50
2018-09-10T07:14:15.325Z,20.54
2018-09-10T07:15:15.325Z,20.50
2018-09-10T07:16:15.320Z,20.71
2018-09-10T07:17:15.317Z,20.79
2018-09-10T07:18:15.321Z,20.85
2018-09-10T07:19:15.321Z,20.90
2018-09-10T07:20:15.315Z,21.08
2018-09-10T07:21:15.314Z,21.09
2018-09-10T07:22:15.313Z,21.12
2018-09-10T07:23:15.316Z,21.08
2018-09-10T07:24:15.315Z,21.13
2018-09-10T07:25:15.315Z,21.18
2018-09-10T07:26:15.317Z,21.31
2018-09-10T07:27:15.315Z,21.38
2018-09-10T07:28:15.309Z,21.49
2018-09-10T07:29:15.307Z,21.37
2018-09-10T07:30:15.308Z,21.46
2018-09-10T07:31:15.306Z,21.59
2018-09-10T07:32:15.311Z,21.74
2018-09-10T07:33:15.312Z,21.85
2018-09-10T07:34:15.309Z,21.96
2018-09-10T07:35:15.305Z,22.09
2018-09-10T07:36:15.309Z,22.26
2018-09-10T07:37:15.308Z,22.42
2018-09-10T07:38:15.310Z,22.51
2018-09-10T07:39:15.311Z,22.48
2018-09-10T07:40:15.306Z,22.69
2018-09-10T07:41:15.305Z,22.64
2018-09-10T07:42:15.311Z,22.82
2018-09-10T07:43:15.310Z,23.12
2018-09-10T07:44:15.413Z,23.21
2018-09-10T07:45:15.306Z,23.38
2018-09-10T07:46:15.314Z,23.54
2018-09-10T07:47:15.312Z,23.54
2018-09-10T07:48:15.315Z,23.57
2018-09-10T07:49:15.317Z,23.67
2018-09-10T07:50:15.312Z,23.67
2018-09-10T07:51:15.313Z,23.96
2018-09-10T07:52:15.319Z,24.00
2018-09-10T07:53:15.320Z,24.39
2018-09-10T07:54:15.320Z,24.63
2018-09-10T07:55:15.323Z,24.64
2018-09-10T07:56:15.319Z,24.61
2018-09-10T07:57:15.321Z,24.61
2018-09-10T07:58:15.324Z,24.56
2018-09-10T07:59:15.325Z,24.45
2018-09-10T08:00:15.332Z,24.31
2018-09-10T08:01:15.332Z,24.30
2018-09-10T08:02:15.336Z,24.26
2018-09-10T08:03:15.339Z,24.11
2018-09-10T08:04:15.339Z,24.05
2018-09-10T08:05:15.342Z,24.02
2018-09-10T08:06:15.343Z,23.78
2018-09-10T08:07:15.345Z,23.84
2018-09-10T08:08:15.342Z,23.79
2018-09-10T08:09:15.384Z,24.00
2018-09-10T08:10:15.350Z,24.06
2018-09-10T08:11:15.353Z,24.08
2018-09-10T08:12:15.355Z,24.00
2018-09-10T08:13:15.357Z,24.21
2018-09-10T08:14:15.359Z,24.26
2018-09-10T08:15:15.365Z,24.27
2018-09-10T08:16:15.359Z,24.42
2018-09-10T08:17:15.361Z,24.75
2018-09-10T08:18:15.363Z,25.19
2018-09-10T08:19:15.367Z,25.71
2018-09-10T08:20:15.372Z,26.56
2018-09-10T08:21:15.374Z,27.15
2018-09-10T08:22:15.373Z,27.43
2018-09-10T08:23:15.378Z,27.93
2018-09-10T08:24:15.426Z,28.72
2018-09-10T08:25:15.415Z,29.26
2018-09-10T08:26:15.389Z,29.63
2018-09-10T08:27:15.392Z,30.54
2018-09-10T08:28:15.392Z,31.54
2018-09-10T08:29:15.396Z,32.21
2018-09-10T08:30:15.458Z,32.51
2018-09-10T08:31:15.407Z,32.24
2018-09-10T08:32:15.417Z,32.63
2018-09-10T08:33:15.422Z,32.83
2018-09-10T08:34:15.429Z,32.99
2018-09-10T08:35:15.434Z,33.29
2018-09-10T08:36:15.437Z,33.52
2018-09-10T08:37:15.443Z,33.29
2018-09-10T08:38:15.455Z,33.15
2018-09-10T08:39:15.463Z,32.83
2018-09-10T08:40:15.465Z,32.28
2018-09-10T08:41:15.472Z,31.65
2018-09-10T08:42:15.481Z,31.38
2018-09-10T08:43:15.487Z,31.19
2018-09-10T08:44:15.501Z,30.75
2018-09-10T08:45:15.511Z,30.18
2018-09-10T08:46:15.517Z,29.84
2018-09-10T08:47:15.526Z,29.20
2018-09-10T08:48:15.540Z,29.12
2018-09-10T08:49:15.533Z,28.95
2018-09-10T08:50:15.540Z,28.89
2018-09-10T08:51:15.548Z,28.82
2018-09-10T08:52:15.558Z,28.70
2018-09-10T08:53:15.565Z,28.70
2018-09-10T08:54:15.760Z,28.69
2018-09-10T08:55:15.690Z,28.70
2018-09-10T08:56:15.856Z,28.17
2018-09-10T08:57:15.593Z,27.61
2018-09-10T08:58:15.598Z,26.94
2018-09-10T08:59:15.605Z,27.09
2018-09-10T09:00:15.609Z,27.16
2018-09-10T09:01:15.611Z,26.93
2018-09-10T09:02:15.617Z,26.96
2018-09-10T09:03:15.622Z,27.18
2018-09-10T09:04:15.633Z,27.49
2018-09-10T09:05:15.639Z,27.59
2018-09-10T09:06:15.669Z,27.80
2018-09-10T09:07:15.650Z,28.13
2018-09-10T09:08:15.652Z,28.33
2018-09-10T09:09:15.656Z,28.64
2018-09-10T09:10:15.666Z,28.70
2018-09-10T09:11:15.670Z,29.21
2018-09-10T09:12:15.673Z,30.07
2018-09-10T09:13:15.676Z,30.30
2018-09-10T09:14:15.682Z,31.20
2018-09-10T09:15:15.688Z,32.24
2018-09-10T09:16:15.699Z,33.29
2018-09-10T09:17:15.708Z,34.15
2018-09-10T09:18:15.711Z,34.38
2018-09-10T09:19:15.718Z,35.00
2018-09-10T09:20:15.721Z,35.50
2018-09-10T09:21:15.728Z,35.49
2018-09-10T09:22:15.736Z,35.36
2018-09-10T09:23:15.787Z,35.10
2018-09-10T09:24:15.757Z,34.94
2018-09-10T09:25:15.767Z,34.83
2018-09-10T09:26:15.772Z,34.84
2018-09-10T09:27:15.782Z,34.50
2018-09-10T09:28:15.796Z,34.64
2018-09-10T09:29:15.804Z,34.06
2018-09-10T09:30:15.899Z,33.75
2018-09-10T09:31:15.825Z,33.60
2018-09-10T09:32:15.830Z,33.55
2018-09-10T09:33:15.841Z,33.70
2018-09-10T09:34:15.851Z,34.65
2018-09-10T09:35:15.861Z,35.29
2018-09-10T09:36:15.913Z,36.06
2018-09-10T09:37:15.884Z,36.56
2018-09-10T09:38:15.894Z,37.27
2018-09-10T09:39:15.905Z,37.75
2018-09-10T09:40:15.911Z,37.96
2018-09-10T09:41:15.923Z,38.28
2018-09-10T09:42:15.938Z,38.78
2018-09-10T09:43:15.994Z,38.89
2018-09-10T09:44:15.958Z,39.41
2018-09-10T09:45:15.970Z,39.91
2018-09-10T09:46:15.981Z,39.35
2018-09-10T09:47:15.996Z,39.14
2018-09-10T09:48:16.014Z,38.26
2018-09-10T09:49:16.026Z,37.69
2018-09-10T09:50:16.038Z,37.27
2018-09-10T09:51:16.093Z,37.28
2018-09-10T09:52:16.061Z,37.15
2018-09-10T09:53:16.073Z,36.91
2018-09-10T09:54:16.086Z,36.48
2018-09-10T09:55:16.101Z,36.37
2018-09-10T09:56:16.119Z,36.16
2018-09-10T09:57:16.131Z,35.89
2018-09-10T09:58:16.139Z,35.40
2018-09-10T09:59:16.151Z,35.02
2018-09-10T10:00:16.170Z,34.60
2018-09-10T10:01:16.181Z,34.28
2018-09-10T10:02:16.192Z,34.26
2018-09-10T10:03:16.207Z,34.19
2018-09-10T10:04:16.265Z,34.06
2018-09-10T10:05:16.222Z,33.97
2018-09-10T10:06:16.234Z,33.49
2018-09-10T10:07:16.245Z,33.38
2018-09-10T10:08:16.261Z,33.07
2018-09-10T10:09:16.271Z,32.84
2018-09-10T10:10:16.333Z,32.96
2018-09-10T10:11:16.296Z,32.96
2018-09-10T10:12:16.449Z,33.09
2018-09-10T10:13:16.307Z,32.99
2018-09-10T10:14:16.322Z,33.05
2018-09-10T10:15:16.332Z,32.91
2018-09-10T10:16:16.366Z,32.68
2018-09-10T10:17:16.346Z,32.56
2018-09-10T10:18:16.355Z,32.35
2018-09-10T10:19:16.365Z,32.32
2018-09-10T10:20:16.378Z,32.77
2018-09-10T10:21:16.386Z,32.53
2018-09-10T10:22:16.405Z,32.63
2018-09-10T10:23:16.407Z,32.46
2018-09-10T10:24:16.409Z,32.21
2018-09-10T10:25:16.416Z,31.68
2018-09-10T10:26:16.426Z,32.07
2018-09-10T10:27:16.436Z,32.56
2018-09-10T10:28:16.583Z,33.05
2018-09-10T10:29:16.457Z,33.96
2018-09-10T10:30:16.462Z,33.63
2018-09-10T10:31:16.469Z,33.45
2018-09-10T10:32:16.483Z,33.66
2018-09-10T10:33:16.491Z,33.82
2018-09-10T10:34:16.500Z,33.63
2018-09-10T10:35:16.509Z,33.33
2018-09-10T10:36:16.513Z,33.11
2018-09-10T10:37:16.521Z,32.90
2018-09-10T10:38:16.532Z,32.76
2018-09-10T10:39:16.552Z,32.62
2018-09-10T10:40:16.553Z,32.41
2018-09-10T10:41:16.560Z,32.36
2018-09-10T10:42:16.569Z,32.22
2018-09-10T10:43:16.579Z,31.88
2018-09-10T10:44:16.582Z,31.67
2018-09-10T10:45:16.590Z,31.35
2018-09-10T10:46:16.602Z,31.05
2018-09-10T10:47:16.616Z,30.96
2018-09-10T10:48:16.616Z,30.96
2018-09-10T10:49:16.621Z,31.09
2018-09-10T10:50:16.626Z,30.98
2018-09-10T10:51:16.633Z,30.88
2018-09-10T10:52:16.646Z,30.70
2018-09-10T10:53:16.651Z,30.60
2018-09-10T10:54:16.660Z,30.38
2018-09-10T10:55:16.666Z,30.37
2018-09-10T10:56:16.669Z,30.06
2018-09-10T10:57:16.677Z,29.76
2018-09-10T10:58:16.681Z,29.86
2018-09-10T10:59:16.687Z,29.82
2018-09-10T11:00:16.698Z,29.69
2018-09-10T11:01:16.754Z,29.70
2018-09-10T11:02:16.710Z,29.71
2018-09-10T11:03:16.711Z,29.74
2018-09-10T11:04:16.793Z,29.76
2018-09-10T11:05:16.727Z,29.85
2018-09-10T11:06:16.733Z,29.76
2018-09-10T11:07:16.740Z,29.55
2018-09-10T11:08:16.742Z,29.49
2018-09-10T11:09:16.747Z,29.36
2018-09-10T11:10:16.753Z,29.42
2018-09-10T11:11:16.758Z,29.49
2018-09-10T11:12:16.769Z,29.26
2018-09-10T11:13:16.774Z,29.03
2018-09-10T11:14:16.779Z,29.11
2018-09-10T11:15:16.785Z,29.21
2018-09-10T11:16:16.785Z,29.21
2018-09-10T11:17:16.791Z,29.26
2018-09-10T11:18:16.801Z,29.08
2018-09-10T11:19:16.806Z,29.05
2018-09-10T11:20:16.808Z,28.73
2018-09-10T11:21:16.815Z,28.80
2018-09-10T11:22:16.838Z,28.72
2018-09-10T11:23:16.824Z,28.72
2018-09-10T11:24:16.834Z,28.80
2018-09-10T11:25:16.838Z,28.77
2018-09-10T11:26:16.842Z,28.73
2018-09-10T11:27:16.849Z,28.80
2018-09-10T11:28:16.849Z,28.82
2018-09-10T11:29:16.854Z,28.82
2018-09-10T11:30:16.859Z,28.79
2018-09-10T11:31:16.862Z,28.77
2018-09-10T11:32:16.872Z,28.76
2018-09-10T11:33:16.878Z,28.77
2018-09-10T11:34:16.879Z,28.70
2018-09-10T11:35:16.883Z,28.64
2018-09-10T11:36:16.891Z,28.70
2018-09-10T11:37:16.896Z,28.65
2018-09-10T11:38:16.904Z,28.70
2018-09-10T11:39:16.906Z,28.61
2018-09-10T11:40:16.906Z,28.50
2018-09-10T11:41:16.913Z,28.20
2018-09-10T11:42:16.914Z,28.35
2018-09-10T11:43:16.919Z,28.33
2018-09-10T11:44:16.929Z,28.50
2018-09-10T11:45:16.933Z,28.61
2018-09-10T11:46:16.938Z,28.62
2018-09-10T11:47:16.942Z,28.76
2018-09-10T11:48:16.943Z,28.77
2018-09-10T11:49:16.946Z,28.70
2018-09-10T11:50:16.955Z,28.76
2018-09-10T11:51:16.961Z,28.85
2018-09-10T11:52:16.997Z,28.82
2018-09-10T11:53:16.965Z,28.87
2018-09-10T11:54:16.973Z,28.82
2018-09-10T11:55:16.975Z,28.85
2018-09-10T11:56:16.987Z,28.97
2018-09-10T11:57:16.992Z,29.00
2018-09-10T11:58:16.994Z,29.11
2018-09-10T11:59:16.999Z,29.30
2018-09-10T12:00:17.000Z,29.17
2018-09-10T12:01:17.003Z,29.18
2018-09-10T12:02:17.014Z,29.03
2018-09-10T12:03:17.013Z,28.98
2018-09-10T12:04:17.023Z,29.03
2018-09-10T12:05:17.028Z,29.05
2018-09-10T12:06:17.026Z,28.91
2018-09-10T12:07:17.030Z,28.85
2018-09-10T12:08:17.051Z,28.64
2018-09-10T12:09:17.045Z,28.36
2018-09-10T12:10:17.049Z,27.87
2018-09-10T12:11:17.054Z,27.88
2018-09-10T12:12:17.057Z,27.80
2018-09-10T12:13:17.060Z,27.72
2018-09-10T12:14:17.064Z,27.80
2018-09-10T12:15:17.068Z,27.78
2018-09-10T12:16:17.077Z,27.84
2018-09-10T12:17:17.080Z,27.77
2018-09-10T12:18:17.086Z,27.62
2018-09-10T12:19:17.090Z,27.62
2018-09-10T12:20:17.090Z,27.71
2018-09-10T12:21:17.093Z,27.72
2018-09-10T12:22:17.100Z,27.62
2018-09-10T12:23:17.106Z,27.62
2018-09-10T12:24:17.105Z,27.53
2018-09-10T12:25:17.108Z,27.53
2018-09-10T12:26:17.113Z,27.35
2018-09-10T12:27:17.117Z,27.34
2018-09-10T12:28:17.126Z,27.38
2018-09-10T12:29:17.129Z,27.30
2018-09-10T12:30:17.133Z,27.35
2018-09-10T12:31:17.138Z,27.38
2018-09-10T12:32:17.148Z,27.38
2018-09-10T12:33:17.140Z,27.46
2018-09-10T12:34:17.152Z,27.46
2018-09-10T12:35:17.148Z,27.39
2018-09-10T12:36:17.163Z,27.43
2018-09-10T12:37:17.158Z,27.42
2018-09-10T12:38:17.158Z,27.49
2018-09-10T12:39:17.174Z,27.50
2018-09-10T12:40:17.171Z,27.48
2018-09-10T12:41:17.174Z,27.52
2018-09-10T12:42:17.181Z,27.61
2018-09-10T12:43:17.182Z,27.63
2018-09-10T12:44:17.182Z,27.55
2018-09-10T12:45:17.184Z,27.55
2018-09-10T12:46:17.220Z,27.50
2018-09-10T12:47:17.190Z,27.48
2018-09-10T12:48:17.200Z,27.42
2018-09-10T12:49:17.203Z,27.48
2018-09-10T12:50:17.206Z,27.45
2018-09-10T12:51:17.210Z,27.50
2018-09-10T12:52:17.212Z,27.50